Time;durP1;ratioP1;P1;durP2;ratioP2;P2;SDS_P1;SDS_P2;PMS_P1;PMS_P2;Temp;Humidity;BMP_temperature;BMP_pressure;BME280_temperature;BME280_humidity;BME280_pressure;Samples;Min_cycle;Max_cycle;Signal;HPM_P1;HPM_P2
2022/07/31 00:00:29;;;;;;;19.23;9.77;;;;;;;18.57;74.77;101564.47;5021868;28;20032;-76
2022/07/31 00:02:55;;;;;;;21.63;9.55;;;;;;;18.58;73.80;101560.72;5040619;28;20051;-76
2022/07/31 00:05:21;;;;;;;22.27;10.63;;;;;;;18.58;73.91;101564.31;5055163;28;20028;-76
2022/07/31 00:07:46;;;;;;;19.40;9.32;;;;;;;18.61;73.68;101565.88;5032315;28;20033;-76
2022/07/31 00:10:11;;;;;;;19.67;9.93;;;;;;;18.62;74.39;101567.59;5029510;28;20029;-76
2022/07/31 00:12:37;;;;;;;20.70;9.73;;;;;;;18.61;75.47;101554.97;5034161;28;20063;-76
2022/07/31 00:15:05;;;;;;;22.85;10.30;;;;;;;18.59;75.47;101546.13;5032417;28;20029;-76
2022/07/31 00:17:31;;;;;;;20.47;9.67;;;;;;;18.56;74.93;101554.59;5034415;28;20029;-76
2022/07/31 00:19:56;;;;;;;20.65;9.73;;;;;;;18.54;74.95;101542.97;5030523;28;20501;-76
2022/07/31 00:22:22;;;;;;;20.92;9.82;;;;;;;18.52;75.26;101554.00;5025822;28;20041;-76
2022/07/31 00:24:47;;;;;;;20.52;10.15;;;;;;;18.50;75.04;101554.16;5032618;28;20505;-76
2022/07/31 00:27:12;;;;;;;25.58;10.52;;;;;;;18.47;75.37;101549.00;5033699;28;20037;-76
2022/07/31 00:29:38;;;;;;;23.48;11.00;;;;;;;18.45;75.16;101550.19;5034270;28;20041;-76
2022/07/31 00:32:03;;;;;;;20.48;10.90;;;;;;;18.44;76.01;101551.19;5030894;28;20030;-76
2022/07/31 00:34:29;;;;;;;21.58;10.55;;;;;;;18.42;75.65;101556.78;5033273;28;20498;-76
2022/07/31 00:36:54;;;;;;;22.70;10.95;;;;;;;18.42;76.18;101558.59;5033092;28;20029;-76
2022/07/31 00:39:19;;;;;;;20.40;10.07;;;;;;;18.40;75.95;101556.03;5034000;28;20029;-76
2022/07/31 00:41:45;;;;;;;21.40;10.65;;;;;;;18.38;76.22;101557.22;5032992;28;20036;-76
2022/07/31 00:44:11;;;;;;;21.55;10.07;;;;;;;18.37;76.04;101558.22;5034207;28;20385;-76
2022/07/31 00:46:37;;;;;;;19.80;10.38;;;;;;;18.39;76.97;101553.47;5032085;28;20038;-76
2022/07/31 00:49:03;;;;;;;19.88;10.20;;;;;;;18.37;75.93;101553.63;5037557;28;20037;-76
2022/07/31 00:51:29;;;;;;;20.67;11.15;;;;;;;18.37;75.20;101550.88;5030206;28;20405;-76
2022/07/31 00:53:54;;;;;;;21.52;11.63;;;;;;;18.38;76.02;101547.19;5032003;28;20035;-76
2022/07/31 00:56:19;;;;;;;20.77;11.00;;;;;;;18.36;76.18;101545.59;5034082;28;20120;-76
2022/07/31 00:58:45;;;;;;;20.13;10.70;;;;;;;18.31;75.75;101540.59;5029938;28;20440;-76
2022/07/31 01:01:10;;;;;;;24.98;11.48;;;;;;;18.28;75.82;101543.63;5019715;28;20128;-75
2022/07/31 01:03:35;;;;;;;23.80;12.25;;;;;;;18.27;76.21;101539.16;5031236;28;20030;-74
2022/07/31 01:06:02;;;;;;;20.48;10.77;;;;;;;18.23;76.47;101543.19;5032234;28;20026;-74
2022/07/31 01:08:27;;;;;;;22.30;12.02;;;;;;;18.19;76.73;101536.34;5021401;28;20026;-75
2022/07/31 01:11:14;;;;;;;23.95;11.45;;;;;;;18.16;76.44;101546.50;5030737;28;20033;-74
2022/07/31 01:13:55;;;;;;;21.58;11.35;;;;;;;18.12;76.33;101544.22;5032978;28;20029;-74
2022/07/31 01:16:23;;;;;;;23.58;11.88;;;;;;;18.08;77.33;101548.22;5031891;28;20057;-74
2022/07/31 01:18:51;;;;;;;22.73;11.25;;;;;;;18.05;77.18;101541.19;5028506;28;20104;-74
2022/07/31 01:21:24;;;;;;;20.92;10.25;;;;;;;18.04;77.68;101552.22;5031074;28;20047;-74
2022/07/31 01:24:01;;;;;;;20.02;11.05;;;;;;;18.03;77.07;101551.38;5020422;28;20025;-74
2022/07/31 01:26:32;;;;;;;22.00;10.77;;;;;;;18.00;77.49;101546.22;5032787;28;20416;-74
2022/07/31 01:29:21;;;;;;;23.30;11.77;;;;;;;18.02;77.24;101543.34;5033312;28;20405;-74
2022/07/31 01:31:54;;;;;;;21.85;10.75;;;;;;;17.96;78.06;101537.47;5025518;28;20457;-74
2022/07/31 01:34:30;;;;;;;20.88;9.50;;;;;;;17.97;77.81;101538.34;5031248;28;20052;-74
2022/07/31 01:37:09;;;;;;;19.52;9.80;;;;;;;17.99;77.56;101534.50;5023561;28;20025;-74
2022/07/31 01:39:36;;;;;;;22.33;9.93;;;;;;;17.98;77.93;101537.38;5025007;28;20041;-74
2022/07/31 01:42:05;;;;;;;20.85;10.98;;;;;;;17.97;78.16;101539.22;5018480;28;20036;-74
2022/07/31 01:44:39;;;;;;;21.52;10.95;;;;;;;17.97;77.11;101535.63;5027480;28;20046;-74
2022/07/31 01:47:06;;;;;;;20.15;9.18;;;;;;;17.96;77.63;101537.47;5025457;28;20029;-74
2022/07/31 01:49:33;;;;;;;19.83;10.55;;;;;;;17.96;77.00;101533.91;5011806;28;20064;-74
2022/07/31 01:52:01;;;;;;;22.83;10.43;;;;;;;17.94;76.62;101542.22;5025202;28;20037;-74
2022/07/31 01:54:27;;;;;;;20.85;10.07;;;;;;;17.92;77.48;101538.78;5020323;28;20028;-74
2022/07/31 01:56:55;;;;;;;21.90;10.77;;;;;;;17.91;77.20;101530.78;5029319;28;20520;-74
2022/07/31 01:59:21;;;;;;;22.48;10.23;;;;;;;17.89;76.55;101532.75;5031292;28;20497;-74
2022/07/31 02:01:47;;;;;;;21.15;10.90;;;;;;;17.87;76.24;101530.16;5024738;28;20405;-74
2022/07/31 02:04:14;;;;;;;21.20;9.90;;;;;;;17.87;76.49;101529.31;5038566;28;20032;-74
2022/07/31 02:06:42;;;;;;;24.17;11.27;;;;;;;17.87;75.80;101530.16;5028714;28;20021;-74
2022/07/31 02:09:08;;;;;;;23.33;10.75;;;;;;;17.89;75.83;101530.00;5032873;28;20477;-74
2022/07/31 02:11:33;;;;;;;22.05;10.23;;;;;;;17.89;76.86;101524.56;5031896;28;20087;-74
2022/07/31 02:13:59;;;;;;;21.15;10.52;;;;;;;17.87;76.62;101524.72;5027439;28;20029;-74
2022/07/31 02:16:25;;;;;;;20.95;10.38;;;;;;;17.86;76.73;101528.44;5032393;28;20038;-74
2022/07/31 02:18:52;;;;;;;22.73;9.82;;;;;;;17.81;77.09;101526.16;5032500;28;20401;-74
2022/07/31 02:21:18;;;;;;;20.67;10.32;;;;;;;17.81;77.56;101522.59;5025765;28;20025;-74
2022/07/31 02:23:44;;;;;;;23.90;11.13;;;;;;;17.82;77.13;101522.44;5032274;28;20029;-74
2022/07/31 02:26:10;;;;;;;21.05;11.05;;;;;;;17.80;76.85;101524.47;5031699;28;20405;-74
2022/07/31 02:28:39;;;;;;;21.83;10.85;;;;;;;17.79;76.59;101522.72;5031634;28;20132;-74
2022/07/31 02:31:09;;;;;;;21.83;10.27;;;;;;;17.77;77.16;101535.59;5019894;28;20053;-74
2022/07/31 02:33:36;;;;;;;20.90;10.80;;;;;;;17.73;77.93;101534.19;5030961;28;20036;-74
2022/07/31 02:36:03;;;;;;;23.40;12.10;;;;;;;17.70;77.07;101536.31;5031519;28;20666;-74
2022/07/31 02:38:29;;;;;;;23.63;11.02;;;;;;;17.68;77.91;101532.88;5029456;28;20029;-74
2022/07/31 02:40:58;;;;;;;21.42;11.05;;;;;;;17.65;78.63;101526.72;5032044;28;20053;-74
2022/07/31 02:43:25;;;;;;;24.40;11.50;;;;;;;17.65;78.74;101531.31;5022899;28;20057;-74
2022/07/31 02:45:50;;;;;;;24.38;12.40;;;;;;;17.64;79.03;101532.31;5025643;28;20283;-74
2022/07/31 02:48:16;;;;;;;20.63;10.77;;;;;;;17.62;78.84;101521.56;5016081;28;20044;-74
2022/07/31 02:50:42;;;;;;;25.85;12.00;;;;;;;17.62;78.47;101531.59;5011664;28;20495;-74
2022/07/31 02:53:07;;;;;;;23.98;11.60;;;;;;;17.60;78.76;101520.00;5018962;28;20053;-74
2022/07/31 02:55:33;;;;;;;20.10;10.88;;;;;;;17.59;79.61;101515.56;5017309;28;20440;-74
2022/07/31 02:58:01;;;;;;;22.02;10.85;;;;;;;17.58;79.71;101516.56;5027863;28;20053;-74
2022/07/31 03:00:26;;;;;;;22.65;11.45;;;;;;;17.59;79.52;101510.13;5026915;28;20508;-74
2022/07/31 03:02:53;;;;;;;20.88;11.13;;;;;;;17.60;79.62;101509.13;5028486;28;20104;-74
2022/07/31 03:05:19;;;;;;;23.85;11.93;;;;;;;17.61;79.79;101509.00;5030622;28;20022;-74
2022/07/31 03:07:45;;;;;;;22.33;10.75;;;;;;;17.64;79.62;101507.84;5029908;28;20029;-74
2022/07/31 03:10:11;;;;;;;21.98;11.48;;;;;;;17.65;78.23;101506.84;5032794;28;20032;-75
2022/07/31 03:12:43;;;;;;;21.55;10.35;;;;;;;17.65;78.04;101504.13;5016676;28;20061;-75
2022/07/31 03:15:12;;;;;;;23.02;11.50;;;;;;;17.66;78.24;101500.41;5027521;28;20028;-74
2022/07/31 03:17:39;;;;;;;23.23;10.77;;;;;;;17.67;77.69;101507.53;5024959;28;20208;-74
2022/07/31 03:20:06;;;;;;;22.05;11.35;;;;;;;17.67;77.49;101503.97;5025565;28;20036;-74
2022/07/31 03:22:32;;;;;;;20.45;11.27;;;;;;;17.68;77.71;101505.72;5023040;28;20120;-74
2022/07/31 03:24:58;;;;;;;24.30;11.77;;;;;;;17.65;77.06;101495.97;5029514;28;20063;-74
2022/07/31 03:27:24;;;;;;;23.25;12.68;;;;;;;17.67;77.13;101502.09;5026696;28;20049;-74
2022/07/31 03:29:50;;;;;;;21.58;11.85;;;;;;;17.65;77.23;101498.69;5022851;28;20049;-74
2022/07/31 03:32:15;;;;;;;24.58;11.68;;;;;;;17.62;77.19;101496.25;5028636;28;20033;-74
2022/07/31 03:34:40;;;;;;;30.13;12.93;;;;;;;17.57;77.81;101496.69;5022811;28;20037;-74
2022/07/31 03:37:06;;;;;;;23.70;12.98;;;;;;;17.54;78.30;101494.25;5030955;28;20041;-74
2022/07/31 03:39:31;;;;;;;23.70;12.48;;;;;;;17.52;77.62;101493.53;5024409;28;20386;-74
2022/07/31 03:41:57;;;;;;;23.48;12.32;;;;;;;17.51;78.16;101488.25;5025691;28;20033;-74
2022/07/31 03:44:24;;;;;;;23.80;12.48;;;;;;;17.50;77.96;101490.09;5027915;28;20037;-74
2022/07/31 03:46:50;;;;;;;22.10;12.35;;;;;;;17.51;78.00;101497.28;5029006;28;20488;-74
2022/07/31 03:49:16;;;;;;;22.95;13.55;;;;;;;17.50;77.52;101490.09;5026703;28;20026;-74
2022/07/31 03:51:42;;;;;;;20.98;12.77;;;;;;;17.51;77.61;101494.56;5027650;28;20029;-74
2022/07/31 03:54:07;;;;;;;25.45;13.68;;;;;;;17.54;77.74;101490.66;5029453;28;20025;-74
2022/07/31 03:56:33;;;;;;;23.88;14.23;;;;;;;17.54;77.54;101494.25;5030399;28;20072;-74
2022/07/31 03:58:58;;;;;;;26.65;14.00;;;;;;;17.56;77.38;101491.41;5024503;28;20030;-74
2022/07/31 04:01:24;;;;;;;23.80;13.63;;;;;;;17.56;77.37;101494.13;5029527;28;20033;-74
2022/07/31 04:03:56;;;;;;;24.58;14.63;;;;;;;17.57;77.07;101496.69;5027180;28;20033;-74
2022/07/31 04:06:22;;;;;;;22.70;13.23;;;;;;;17.59;77.37;101499.28;5049332;28;20064;-74
2022/07/31 04:08:47;;;;;;;23.33;13.30;;;;;;;17.59;77.63;101497.41;5030313;28;20053;-75
2022/07/31 04:11:13;;;;;;;24.13;13.05;;;;;;;17.59;77.62;101497.41;5031240;28;20025;-74
2022/07/31 04:13:38;;;;;;;22.60;12.30;;;;;;;17.59;77.20;101493.84;5032914;28;20437;-74
2022/07/31 04:16:04;;;;;;;22.88;12.82;;;;;;;17.59;77.55;101504.69;5021899;28;20029;-74
2022/07/31 04:18:29;;;;;;;22.15;12.18;;;;;;;17.59;77.78;101501.97;5023151;28;20116;-74
2022/07/31 04:20:54;;;;;;;25.40;13.65;;;;;;;17.58;77.69;101511.97;5026985;28;20021;-74
2022/07/31 04:23:20;;;;;;;24.02;13.07;;;;;;;17.58;77.27;101505.69;5033809;28;20413;-74
2022/07/31 04:25:45;;;;;;;22.73;12.52;;;;;;;17.59;77.29;101511.00;5035228;28;20067;-74
2022/07/31 04:28:10;;;;;;;23.05;12.40;;;;;;;17.59;77.55;101511.00;5029195;28;20028;-74
2022/07/31 04:30:36;;;;;;;22.50;11.65;;;;;;;17.58;77.39;101503.81;5032329;28;20760;-74
2022/07/31 04:33:02;;;;;;;25.52;12.57;;;;;;;17.60;77.66;101500.97;5033485;28;20029;-74
2022/07/31 04:35:29;;;;;;;23.23;12.48;;;;;;;17.61;78.05;101503.56;5031800;28;20426;-74
2022/07/31 04:37:54;;;;;;;24.92;11.93;;;;;;;17.62;77.99;101516.13;5024166;28;20113;-74
2022/07/31 04:40:20;;;;;;;22.30;11.27;;;;;;;17.62;78.15;101509.84;5028156;28;20440;-74
2022/07/31 04:42:45;;;;;;;22.63;12.15;;;;;;;17.62;77.92;101512.56;5033702;28;20036;-74
2022/07/31 04:45:11;;;;;;;23.15;11.75;;;;;;;17.63;78.19;101509.72;5022169;28;20029;-74
2022/07/31 04:47:37;;;;;;;20.33;10.45;;;;;;;17.63;78.51;101511.56;5017008;28;20041;-74
2022/07/31 04:50:02;;;;;;;20.90;10.77;;;;;;;17.65;78.90;101507.69;5028302;28;20079;-74
2022/07/31 04:52:28;;;;;;;21.15;9.82;;;;;;;17.65;79.45;101509.56;5027683;28;20061;-74
2022/07/31 04:54:53;;;;;;;21.15;9.70;;;;;;;17.67;78.91;101512.97;5021727;28;20038;-74
2022/07/31 04:57:18;;;;;;;20.17;10.38;;;;;;;17.69;78.90;101505.56;5033002;28;20030;-74
2022/07/31 04:59:43;;;;;;;20.23;8.82;;;;;;;17.70;79.51;101507.28;5033500;28;20401;-74
2022/07/31 05:02:09;;;;;;;23.05;9.95;;;;;;;17.70;79.81;101500.97;5028948;28;20039;-74
2022/07/31 05:04:34;;;;;;;22.10;8.68;;;;;;;17.71;79.70;101500.81;5029531;28;20033;-74
2022/07/31 05:06:59;;;;;;;20.45;8.52;;;;;;;17.71;79.87;101506.25;5028106;28;20025;-74
2022/07/31 05:09:28;;;;;;;21.25;8.80;;;;;;;17.70;80.05;101504.56;5031739;28;20041;-74
2022/07/31 05:11:54;;;;;;;17.08;7.75;;;;;;;17.71;80.37;101506.25;5028517;28;20243;-74
2022/07/31 05:14:20;;;;;;;18.20;8.18;;;;;;;17.72;80.55;101499.84;5023167;28;20041;-75
2022/07/31 05:16:46;;;;;;;19.70;8.43;;;;;;;17.73;80.16;101487.97;5025600;28;20053;-75
2022/07/31 05:19:11;;;;;;;20.63;8.88;;;;;;;17.76;80.65;101484.97;5024992;28;20179;-76
2022/07/31 05:21:37;;;;;;;19.23;8.07;;;;;;;17.80;80.64;101489.13;5024726;28;20033;-74
2022/07/31 05:24:02;;;;;;;19.58;8.55;;;;;;;17.86;81.56;101494.97;5030026;28;20025;-74
2022/07/31 05:26:29;;;;;;;17.20;7.38;;;;;;;17.85;80.83;101498.66;5021689;28;20030;-74
2022/07/31 05:28:56;;;;;;;20.17;7.80;;;;;;;17.81;81.11;101496.25;5028364;28;20525;-74
2022/07/31 05:31:22;;;;;;;20.25;7.90;;;;;;;17.84;81.59;101494.25;5029051;28;20075;-74
2022/07/31 05:33:49;;;;;;;18.95;6.85;;;;;;;17.85;81.24;101494.13;5018743;28;20508;-74
2022/07/31 05:36:15;;;;;;;17.65;6.10;;;;;;;17.84;81.90;101486.94;5032180;28;20595;-74
2022/07/31 05:38:41;;;;;;;16.90;6.13;;;;;;;17.86;81.85;101482.22;5027293;28;20089;-74
2022/07/31 05:41:07;;;;;;;15.13;5.85;;;;;;;17.88;82.02;101482.06;5031550;28;20060;-74
2022/07/31 05:43:32;;;;;;;14.98;5.53;;;;;;;17.90;82.16;101483.69;5026319;28;20371;-74
2022/07/31 05:45:57;;;;;;;14.05;5.75;;;;;;;17.92;82.15;101495.28;5017979;28;20032;-74
2022/07/31 05:48:23;;;;;;;18.77;6.22;;;;;;;17.91;82.72;101493.56;5032331;28;20025;-74
2022/07/31 05:50:49;;;;;;;17.27;5.63;;;;;;;17.93;82.56;101487.97;5022611;28;20025;-74
2022/07/31 05:53:15;;;;;;;19.42;6.07;;;;;;;17.94;82.52;101489.69;5028150;28;20029;-74
2022/07/31 05:55:41;;;;;;;16.88;6.03;;;;;;;17.94;82.95;101492.41;5031896;28;20646;-74
2022/07/31 05:58:07;;;;;;;17.33;5.60;;;;;;;17.96;83.08;101495.84;5031334;28;20029;-74
2022/07/31 06:00:32;;;;;;;14.27;5.15;;;;;;;17.99;83.34;101484.66;5029883;28;20037;-74
2022/07/31 06:02:58;;;;;;;15.68;5.53;;;;;;;18.01;83.08;101488.13;5030997;28;20441;-74
2022/07/31 06:05:24;;;;;;;17.30;5.88;;;;;;;18.03;83.03;101487.97;5033102;28;20044;-74
2022/07/31 06:07:50;;;;;;;18.42;6.43;;;;;;;18.03;83.18;101490.69;5031472;28;20034;-74
2022/07/31 06:10:15;;;;;;;17.20;5.30;;;;;;;18.03;83.53;101487.97;5031672;28;20030;-74
2022/07/31 06:12:41;;;;;;;17.10;5.97;;;;;;;18.03;83.27;101485.25;5023542;28;20576;-74
2022/07/31 06:15:07;;;;;;;16.38;5.90;;;;;;;18.04;83.65;101485.09;5032243;28;20029;-74
2022/07/31 06:17:32;;;;;;;15.00;4.68;;;;;;;18.07;83.66;101487.53;5019943;28;20370;-74
2022/07/31 06:19:57;;;;;;;14.68;4.53;;;;;;;18.10;83.69;101489.09;5027132;28;20128;-74
2022/07/31 06:22:22;;;;;;;15.50;5.30;;;;;;;18.12;83.91;101496.09;5031803;28;20025;-74
2022/07/31 06:24:47;;;;;;;17.85;5.75;;;;;;;18.13;84.07;101484.22;5025742;28;20029;-74
2022/07/31 06:27:13;;;;;;;16.08;5.10;;;;;;;18.13;84.07;101481.50;5028850;28;20175;-74
2022/07/31 06:29:38;;;;;;;15.73;5.60;;;;;;;18.16;84.18;101473.03;5030917;28;20404;-74
2022/07/31 06:32:04;;;;;;;16.48;5.50;;;;;;;18.19;84.24;101468.31;5031270;28;20025;-74
2022/07/31 06:34:29;;;;;;;16.33;5.25;;;;;;;18.21;84.02;101471.75;5032995;28;20021;-74
2022/07/31 06:36:55;;;;;;;14.75;5.10;;;;;;;18.22;84.38;101468.88;5031014;28;20029;-74
2022/07/31 06:39:20;;;;;;;19.40;5.63;;;;;;;18.25;84.04;101470.44;5025951;28;20025;-74
2022/07/31 06:41:48;;;;;;;17.77;5.93;;;;;;;18.28;83.82;101472.88;5021940;28;20025;-74
2022/07/31 06:44:18;;;;;;;15.77;5.53;;;;;;;18.30;84.13;101465.41;5030356;28;20473;-74
2022/07/31 06:46:44;;;;;;;17.67;5.57;;;;;;;18.33;83.90;101476.00;5031280;28;20470;-74
2022/07/31 06:49:09;;;;;;;15.93;5.72;;;;;;;18.35;84.39;101482.16;5031233;28;20084;-74
2022/07/31 06:51:35;;;;;;;17.75;5.32;;;;;;;18.36;84.20;101483.00;5019243;28;20076;-74
2022/07/31 06:54:02;;;;;;;18.50;6.15;;;;;;;18.38;84.68;101490.03;5017846;28;20021;-74
2022/07/31 06:56:29;;;;;;;14.40;5.47;;;;;;;18.40;84.92;101481.72;5028091;28;20405;-74
2022/07/31 06:58:54;;;;;;;18.75;6.15;;;;;;;18.44;84.64;101473.09;5030543;28;20036;-73
2022/07/31 07:01:20;;;;;;;16.92;5.82;;;;;;;18.48;84.21;101469.06;5028259;28;20041;-75
2022/07/31 07:03:45;;;;;;;17.23;6.20;;;;;;;18.51;84.05;101463.31;5033918;28;20496;-75
2022/07/31 07:06:11;;;;;;;14.82;5.60;;;;;;;18.55;84.32;101474.78;5023201;28;20049;-74
2022/07/31 07:08:37;;;;;;;18.55;6.57;;;;;;;18.56;83.83;101464.75;5018874;28;20036;-74
2022/07/31 07:11:02;;;;;;;18.60;7.07;;;;;;;18.59;84.18;101472.59;5016056;28;20030;-73
2022/07/31 07:13:27;;;;;;;20.63;6.90;;;;;;;18.60;83.98;101471.63;5025700;28;20033;-74
2022/07/31 07:15:53;;;;;;;21.23;7.75;;;;;;;18.63;83.81;101474.03;5030627;28;20036;-75
2022/07/31 07:18:20;;;;;;;20.75;7.97;;;;;;;18.64;84.44;101478.47;5013681;28;20033;-75
2022/07/31 07:20:49;;;;;;;20.58;7.68;;;;;;;18.66;84.13;101471.00;5026908;28;20017;-74
2022/07/31 07:23:14;;;;;;;24.63;8.52;;;;;;;18.69;84.31;101477.00;5025601;28;20030;-73
2022/07/31 07:25:39;;;;;;;20.05;7.93;;;;;;;18.74;84.06;101476.56;5029604;28;20029;-73
2022/07/31 07:28:05;;;;;;;21.58;9.48;;;;;;;18.75;83.88;101474.69;5023580;28;20033;-73
2022/07/31 07:30:30;;;;;;;22.73;9.43;;;;;;;18.80;84.56;101475.94;5024302;28;20045;-73
2022/07/31 07:32:56;;;;;;;23.65;10.52;;;;;;;18.82;83.97;101463.03;5019389;28;20056;-74
2022/07/31 07:35:21;;;;;;;21.63;9.73;;;;;;;18.87;83.83;101476.22;5021687;28;20048;-74
2022/07/31 07:37:47;;;;;;;20.92;9.60;;;;;;;18.91;83.72;101463.19;5018443;28;20373;-73
2022/07/31 07:40:13;;;;;;;22.50;9.52;;;;;;;18.95;83.72;101465.44;5021463;28;20498;-74
2022/07/31 07:42:38;;;;;;;21.55;8.93;;;;;;;19.01;84.03;101469.41;5017910;28;20038;-74
2022/07/31 07:45:04;;;;;;;24.48;10.88;;;;;;;19.04;83.68;101463.66;5018878;28;20022;-74
2022/07/31 07:47:29;;;;;;;21.27;8.82;;;;;;;19.08;83.61;101459.63;5021587;28;20029;-74
2022/07/31 07:49:54;;;;;;;24.63;10.07;;;;;;;19.13;84.03;101457.28;5023608;28;20441;-74
2022/07/31 07:52:20;;;;;;;24.73;10.20;;;;;;;19.15;83.27;101460.72;5028499;28;20029;-74
2022/07/31 07:54:46;;;;;;;21.70;9.88;;;;;;;19.18;83.44;101460.41;5024540;28;20031;-74
2022/07/31 07:57:15;;;;;;;21.08;9.95;;;;;;;19.22;83.35;101469.13;5029257;28;20500;-73
2022/07/31 07:59:41;;;;;;;20.45;10.23;;;;;;;19.27;83.52;101471.38;5032793;28;20393;-73
2022/07/31 08:02:06;;;;;;;23.30;9.70;;;;;;;19.26;83.33;101464.25;5024629;28;20026;-74
2022/07/31 08:04:32;;;;;;;22.23;10.95;;;;;;;19.27;83.04;101463.22;5027027;28;20088;-73
2022/07/31 08:06:57;;;;;;;20.92;9.35;;;;;;;19.30;83.74;101463.78;5030404;28;20075;-73
2022/07/31 08:09:23;;;;;;;21.35;9.85;;;;;;;19.36;84.32;101456.84;5025017;28;20025;-74
2022/07/31 08:11:48;;;;;;;23.35;9.77;;;;;;;19.38;83.04;101463.84;5023334;28;20021;-74
2022/07/31 08:14:13;;;;;;;21.17;10.90;;;;;;;19.45;83.04;101457.78;5030758;28;20104;-74
2022/07/31 08:16:39;;;;;;;22.42;10.25;;;;;;;19.51;83.60;101458.00;5031276;28;20100;-76
2022/07/31 08:19:04;;;;;;;21.83;10.95;;;;;;;19.56;82.67;101458.41;5030098;28;20045;-76
2022/07/31 08:21:30;;;;;;;22.23;11.07;;;;;;;19.62;82.91;101451.47;5028245;28;20115;-75
2022/07/31 08:23:55;;;;;;;21.13;10.18;;;;;;;19.64;82.54;101456.75;5025051;28;20048;-74
2022/07/31 08:26:21;;;;;;;21.88;11.10;;;;;;;19.69;82.74;101457.13;5026228;28;20120;-74
2022/07/31 08:28:46;;;;;;;21.95;10.30;;;;;;;19.71;82.45;101455.97;5023756;28;20426;-75
2022/07/31 08:31:11;;;;;;;25.23;10.63;;;;;;;19.76;82.29;101446.47;5023472;28;20037;-74
2022/07/31 08:33:36;;;;;;;22.77;10.93;;;;;;;19.78;81.75;101453.50;5023965;28;20357;-74
2022/07/31 08:36:03;;;;;;;21.67;10.52;;;;;;;19.80;81.83;101456.06;5021955;28;20088;-74
2022/07/31 08:38:28;;;;;;;22.80;10.68;;;;;;;19.83;81.92;101458.47;5022012;28;20555;-74
2022/07/31 08:40:54;;;;;;;24.23;10.85;;;;;;;19.84;81.32;101460.16;5037057;28;20030;-74
2022/07/31 08:43:19;;;;;;;25.00;9.98;;;;;;;19.85;81.67;101454.56;5020355;28;20466;-73
2022/07/31 08:45:46;;;;;;;21.65;10.00;;;;;;;19.87;81.81;101459.88;5020475;28;20032;-74
2022/07/31 08:48:13;;;;;;;22.08;10.80;;;;;;;19.87;82.44;101447.09;5027760;28;20336;-75
2022/07/31 08:50:39;;;;;;;21.88;9.63;;;;;;;19.88;82.39;101454.28;5023667;28;20021;-75
2022/07/31 08:53:06;;;;;;;24.23;10.48;;;;;;;19.89;82.47;101463.28;5024377;28;20033;-74
2022/07/31 08:55:32;;;;;;;19.23;9.25;;;;;;;19.91;82.53;101469.44;5022011;28;20083;-74
2022/07/31 08:57:58;;;;;;;19.85;9.38;;;;;;;19.92;82.08;101453.94;5024082;28;20124;-74
2022/07/31 09:00:23;;;;;;;20.83;9.75;;;;;;;19.94;81.91;101463.66;5020889;28;20108;-74
2022/07/31 09:02:49;;;;;;;22.00;10.27;;;;;;;19.98;82.81;101462.34;5024382;28;20358;-74
2022/07/31 09:05:15;;;;;;;22.20;10.20;;;;;;;20.01;82.40;101458.44;5021781;28;20458;-74
2022/07/31 09:07:41;;;;;;;23.75;10.90;;;;;;;20.05;82.33;101457.94;5021514;28;20035;-74
2022/07/31 09:10:19;;;;;;;22.40;9.93;;;;;;;20.10;81.69;101452.00;5022292;28;20030;-74
2022/07/31 09:12:44;;;;;;;21.00;9.43;;;;;;;20.13;81.62;101440.75;5029711;28;20468;-75
2022/07/31 09:15:28;;;;;;;20.27;8.95;;;;;;;20.18;81.94;101443.88;5021836;28;20032;-76
2022/07/31 09:17:55;;;;;;;19.85;9.15;;;;;;;20.23;82.41;101446.97;5021536;28;20108;-75
2022/07/31 09:20:23;;;;;;;18.77;8.70;;;;;;;20.31;82.61;101439.84;5011523;28;20021;-75
2022/07/31 09:23:09;;;;;;;20.17;8.93;;;;;;;20.37;81.02;101441.94;5028959;28;20053;-75
2022/07/31 09:25:35;;;;;;;21.05;8.82;;;;;;;20.42;81.28;101431.38;5026369;28;20038;-75
2022/07/31 09:28:03;;;;;;;20.13;9.15;;;;;;;20.45;81.13;101431.06;5031358;28;20362;-75
2022/07/31 09:30:28;;;;;;;21.70;9.55;;;;;;;20.51;80.73;101451.38;5033254;28;20041;-75
2022/07/31 09:32:56;;;;;;;21.13;8.85;;;;;;;20.55;81.25;101447.31;5032656;28;20033;-73
2022/07/31 09:35:21;;;;;;;20.13;9.50;;;;;;;20.60;81.32;101444.94;5032534;28;20028;-73
2022/07/31 09:37:47;;;;;;;21.48;8.75;;;;;;;20.68;81.91;101445.00;5033912;28;20049;-73
2022/07/31 09:40:13;;;;;;;22.27;8.90;;;;;;;20.75;80.41;101446.06;5033665;28;20021;-74
2022/07/31 09:42:44;;;;;;;24.63;9.13;;;;;;;20.85;81.05;101448.69;5032972;28;20032;-74
2022/07/31 09:45:20;;;;;;;18.98;8.30;;;;;;;20.95;80.12;101441.19;5033664;28;20468;-74
2022/07/31 09:47:46;;;;;;;19.88;8.23;;;;;;;21.04;80.17;101439.34;5031716;28;20020;-74
2022/07/31 09:50:13;;;;;;;22.20;8.40;;;;;;;21.13;79.25;101434.75;5028203;28;20470;-74
2022/07/31 09:52:38;;;;;;;21.17;8.05;;;;;;;21.16;79.47;101434.41;5013906;28;20482;-74
2022/07/31 09:55:06;;;;;;;18.77;7.97;;;;;;;21.22;79.33;101436.47;5016586;28;20032;-74
2022/07/31 09:57:34;;;;;;;18.83;8.88;;;;;;;21.27;77.64;101435.94;5033688;28;20029;-74
2022/07/31 10:00:00;;;;;;;17.73;7.60;;;;;;;21.36;78.67;101436.81;5031220;28;20018;-74
2022/07/31 10:02:28;;;;;;;17.13;7.40;;;;;;;21.38;76.87;101438.38;5032771;28;20107;-74
2022/07/31 10:04:55;;;;;;;19.05;8.30;;;;;;;21.39;76.75;101433.75;5045881;28;20022;-74
2022/07/31 10:07:25;;;;;;;18.88;6.85;;;;;;;21.43;78.28;101433.22;5033482;28;20481;-74
2022/07/31 10:09:54;;;;;;;18.13;6.55;;;;;;;21.45;77.51;101427.59;5032626;28;20055;-74
2022/07/31 10:12:21;;;;;;;17.67;6.70;;;;;;;21.48;76.49;101439.06;5029905;28;20036;-74
2022/07/31 10:14:53;;;;;;;17.40;6.53;;;;;;;21.50;76.57;101444.34;5020402;28;20030;-73
2022/07/31 10:17:23;;;;;;;16.67;6.80;;;;;;;21.53;77.91;101435.84;5015690;28;20025;-74
2022/07/31 10:19:52;;;;;;;16.77;6.53;;;;;;;21.55;76.31;101428.31;5029470;28;20041;-73
2022/07/31 10:22:20;;;;;;;17.25;6.15;;;;;;;21.58;76.37;101432.59;5029670;28;20033;-73
2022/07/31 10:24:47;;;;;;;15.70;6.18;;;;;;;21.64;76.50;101437.38;5030372;28;20025;-73
2022/07/31 10:27:15;;;;;;;19.23;6.90;;;;;;;21.67;76.23;101433.44;5030499;28;20029;-73
2022/07/31 10:29:40;;;;;;;17.90;6.30;;;;;;;21.69;75.34;101428.66;5018887;28;20053;-73
2022/07/31 10:32:08;;;;;;;17.27;6.60;;;;;;;21.73;75.80;101427.28;5031335;28;20490;-73
2022/07/31 10:34:34;;;;;;;13.48;5.82;;;;;;;21.80;76.43;101431.03;5032977;28;20065;-73
2022/07/31 10:37:23;;;;;;;13.80;6.00;;;;;;;21.88;75.82;101431.03;5031537;28;20025;-73
2022/07/31 10:39:58;;;;;;;18.45;6.30;;;;;;;21.94;74.35;101422.13;5032102;28;20032;-73
2022/07/31 10:42:34;;;;;;;19.23;6.35;;;;;;;21.98;74.77;101423.50;5030972;28;20029;-73
2022/07/31 10:45:06;;;;;;;15.65;5.85;;;;;;;22.02;74.68;101421.25;5028540;28;20037;-72
2022/07/31 10:47:31;;;;;;;16.27;5.63;;;;;;;22.06;75.57;101413.56;5018546;28;20112;-73
2022/07/31 10:49:57;;;;;;;15.32;6.30;;;;;;;22.06;75.46;101410.81;5026920;28;20513;-73
2022/07/31 10:52:40;;;;;;;14.05;5.60;;;;;;;22.06;75.69;101408.94;5033199;28;20125;-73
2022/07/31 10:55:23;;;;;;;15.98;5.90;;;;;;;22.06;74.98;101408.09;5029131;28;20040;-72
2022/07/31 10:57:50;;;;;;;13.32;5.10;;;;;;;22.04;73.95;101407.41;5032262;28;20061;-72
2022/07/31 11:00:18;;;;;;;11.13;4.65;;;;;;;22.00;73.45;101409.63;5025622;28;20048;-74
2022/07/31 11:02:44;;;;;;;15.63;5.50;;;;;;;22.07;74.55;101404.31;5024432;28;20060;-73
2022/07/31 11:05:22;;;;;;;13.32;5.53;;;;;;;22.13;74.36;101403.63;5029750;28;20033;-73
2022/07/31 11:08:02;;;;;;;14.32;6.00;;;;;;;22.18;73.57;101401.19;5016843;28;20033;-73
2022/07/31 11:10:28;;;;;;;13.23;5.25;;;;;;;22.21;72.77;101400.00;5025401;28;20030;-72
2022/07/31 11:13:07;;;;;;;15.38;5.65;;;;;;;22.24;73.32;101394.16;5029217;28;20035;-73